createdAt,value
2022-09-20T00:00:52.294Z,9.70
2022-09-20T00:03:18.951Z,9.70
2022-09-20T00:05:46.181Z,9.70
2022-09-20T00:08:15.085Z,9.70
2022-09-20T00:10:42.969Z,9.70
2022-09-20T00:13:11.481Z,9.70
2022-09-20T00:15:42.707Z,9.70
2022-09-20T00:18:09.333Z,9.70
2022-09-20T00:20:35.938Z,9.60
2022-09-20T00:23:02.617Z,9.70
2022-09-20T00:25:29.842Z,9.70
2022-09-20T00:27:56.546Z,9.70
2022-09-20T00:30:23.823Z,9.70
2022-09-20T00:32:50.452Z,9.70
2022-09-20T00:35:17.052Z,9.70
2022-09-20T00:37:43.826Z,9.70
2022-09-20T00:40:13.055Z,9.70
2022-09-20T00:42:40.013Z,9.70
2022-09-20T00:45:08.327Z,9.70
2022-09-20T00:47:40.907Z,9.70
2022-09-20T00:50:07.619Z,9.70
2022-09-20T00:52:35.645Z,9.70
2022-09-20T00:55:03.770Z,9.70
2022-09-20T00:57:35.266Z,9.60
2022-09-20T01:00:06.808Z,9.60
2022-09-20T01:02:35.812Z,9.70
2022-09-20T01:05:02.596Z,9.70
2022-09-20T01:07:29.850Z,9.70
2022-09-20T01:09:56.940Z,9.70
2022-09-20T01:12:25.970Z,9.70
2022-09-20T01:14:53.172Z,9.60
2022-09-20T01:17:21.634Z,9.70
2022-09-20T01:19:51.271Z,9.70
2022-09-20T01:22:33.958Z,9.70
2022-09-20T01:25:06.195Z,9.60
2022-09-20T01:27:38.804Z,9.60
2022-09-20T01:30:07.389Z,9.60
2022-09-20T01:32:46.932Z,9.60
2022-09-20T01:35:15.972Z,9.60
2022-09-20T01:37:52.099Z,9.70
2022-09-20T01:40:22.216Z,9.60
2022-09-20T01:42:58.985Z,9.60
2022-09-20T01:45:29.897Z,9.60
2022-09-20T01:48:05.676Z,9.60
2022-09-20T01:50:35.407Z,9.60
2022-09-20T01:53:02.027Z,9.60
2022-09-20T01:55:31.834Z,9.60
2022-09-20T01:58:16.313Z,9.60
2022-09-20T02:01:07.873Z,9.60
2022-09-20T02:04:13.439Z,9.60
2022-09-20T02:06:50.928Z,9.50
2022-09-20T02:09:35.956Z,9.50
2022-09-20T02:12:05.337Z,9.40
2022-09-20T02:14:41.819Z,9.30
2022-09-20T02:17:14.123Z,9.30
2022-09-20T02:19:40.709Z,9.40
2022-09-20T02:22:07.267Z,9.40
2022-09-20T02:24:39.994Z,9.40
2022-09-20T02:27:18.664Z,9.40
2022-09-20T02:29:51.429Z,9.40
2022-09-20T02:32:24.959Z,9.40
2022-09-20T02:34:59.059Z,9.40
2022-09-20T02:37:28.709Z,9.40
2022-09-20T02:40:14.262Z,9.40
2022-09-20T02:42:46.998Z,9.40
2022-09-20T02:45:32.524Z,9.40
2022-09-20T02:48:03.029Z,9.30
2022-09-20T02:50:45.396Z,9.30
2022-09-20T02:53:15.217Z,9.20
2022-09-20T02:55:54.741Z,9.20
2022-09-20T02:58:40.097Z,9.20
2022-09-20T03:01:17.767Z,9.20
2022-09-20T03:04:03.488Z,9.20
2022-09-20T03:06:48.863Z,9.10
2022-09-20T03:09:28.229Z,9.10
2022-09-20T03:11:57.813Z,9.10
2022-09-20T03:14:27.599Z,9.10
2022-09-20T03:17:12.826Z,9.10
2022-09-20T03:19:53.202Z,9.20
2022-09-20T03:22:22.909Z,9.20
2022-09-20T03:24:55.650Z,9.10
2022-09-20T03:27:39.545Z,9.10
2022-09-20T03:30:21.470Z,9.10
2022-09-20T03:33:06.794Z,9.10
2022-09-20T03:35:36.221Z,9.10
2022-09-20T03:38:21.905Z,9.20
2022-09-20T03:40:51.560Z,9.20
2022-09-20T03:43:18.214Z,9.20
2022-09-20T03:45:53.349Z,9.10
2022-09-20T03:48:31.629Z,9.20
2022-09-20T03:51:04.374Z,9.20
2022-09-20T03:53:40.806Z,9.10
2022-09-20T03:56:26.373Z,9.20
2022-09-20T03:59:11.992Z,9.20
2022-09-20T04:01:47.734Z,9.20
2022-09-20T04:04:23.815Z,9.20
2022-09-20T04:07:01.223Z,9.20
2022-09-20T04:09:33.882Z,9.10
2022-09-20T04:12:00.488Z,9.10
2022-09-20T04:14:33.607Z,9.10
2022-09-20T04:17:18.854Z,9.10
2022-09-20T04:19:48.913Z,9.20
2022-09-20T04:22:16.239Z,9.20
2022-09-20T04:25:12.381Z,9.20
2022-09-20T04:27:46.152Z,9.20
2022-09-20T04:30:19.463Z,9.20
2022-09-20T04:32:52.372Z,9.20
2022-09-20T04:35:56.449Z,9.10
2022-09-20T04:38:23.307Z,9.10
2022-09-20T04:40:55.885Z,9.20
2022-09-20T04:43:22.472Z,9.20
2022-09-20T04:46:03.836Z,9.10
2022-09-20T04:48:39.607Z,9.20
2022-09-20T04:51:09.214Z,9.10
2022-09-20T04:53:38.917Z,9.20
2022-09-20T04:56:17.821Z,9.20
2022-09-20T04:59:05.985Z,9.20
2022-09-20T05:01:35.740Z,9.20
2022-09-20T05:04:02.398Z,9.20
2022-09-20T05:06:39.143Z,9.20
2022-09-20T05:09:24.581Z,9.30
2022-09-20T05:11:57.297Z,9.20
2022-09-20T05:14:48.988Z,9.20
2022-09-20T05:17:21.879Z,9.20
2022-09-20T05:20:06.577Z,9.10
2022-09-20T05:22:48.626Z,9.20
2022-09-20T05:25:33.655Z,9.20
2022-09-20T05:28:07.867Z,9.20
2022-09-20T05:30:49.017Z,9.20
2022-09-20T05:33:29.772Z,9.20
2022-09-20T05:36:13.620Z,9.30
2022-09-20T05:38:52.020Z,9.30
2022-09-20T05:41:34.041Z,9.30
2022-09-20T05:44:16.053Z,9.40
2022-09-20T05:46:56.556Z,9.40
2022-09-20T05:49:26.056Z,9.50
2022-09-20T05:52:06.924Z,9.60
2022-09-20T05:54:47.426Z,9.60
2022-09-20T05:57:14.984Z,9.70
2022-09-20T05:59:56.922Z,9.70
2022-09-20T06:02:28.560Z,9.80
2022-09-20T06:05:16.931Z,9.80
2022-09-20T06:07:47.226Z,9.90
2022-09-20T06:10:31.447Z,10.00
2022-09-20T06:13:15.756Z,10.00
2022-09-20T06:15:50.673Z,9.90
2022-09-20T06:18:22.640Z,9.90
2022-09-20T06:21:08.252Z,10.00
2022-09-20T06:23:36.079Z,9.90
2022-09-20T06:26:07.846Z,10.00
2022-09-20T06:28:40.931Z,9.90
2022-09-20T06:31:09.170Z,9.90
2022-09-20T06:33:44.981Z,9.90
2022-09-20T06:36:43.641Z,9.90
2022-09-20T06:39:34.775Z,9.90
2022-09-20T06:42:01.609Z,9.90
2022-09-20T06:44:28.360Z,9.80
2022-09-20T06:46:55.014Z,9.80
2022-09-20T06:49:22.419Z,9.80
2022-09-20T06:51:52.491Z,9.80
2022-09-20T06:54:20.716Z,9.80
2022-09-20T06:56:48.576Z,9.80
2022-09-20T06:59:15.326Z,9.90
2022-09-20T07:01:42.276Z,10.00
2022-09-20T07:04:09.843Z,10.00
2022-09-20T07:06:36.449Z,10.00
2022-09-20T07:09:03.618Z,10.20
2022-09-20T07:11:32.829Z,10.20
2022-09-20T07:13:59.474Z,10.30
2022-09-20T07:16:26.495Z,10.30
2022-09-20T07:18:53.565Z,10.30
2022-09-20T07:21:20.940Z,10.40
2022-09-20T07:23:51.349Z,10.40
2022-09-20T07:26:22.548Z,10.40
2022-09-20T07:28:49.942Z,10.40
2022-09-20T07:31:17.673Z,10.30
2022-09-20T07:33:44.851Z,10.20
2022-09-20T07:36:14.430Z,10.10
2022-09-20T07:38:42.068Z,10.00
2022-09-20T07:41:09.686Z,9.90
2022-09-20T07:43:36.580Z,9.80
2022-09-20T07:46:03.421Z,9.60
2022-09-20T07:48:31.484Z,9.50
2022-09-20T07:51:08.549Z,9.50
2022-09-20T07:53:35.718Z,9.60
2022-09-20T07:56:10.599Z,9.60
2022-09-20T07:58:37.585Z,9.70
2022-09-20T08:01:06.110Z,9.90
2022-09-20T08:03:33.405Z,9.90
2022-09-20T08:06:00.496Z,9.90
2022-09-20T08:08:27.233Z,10.00
2022-09-20T08:10:55.837Z,10.10
2022-09-20T08:16:10.982Z,10.30
2022-09-20T08:18:37.967Z,10.30
2022-09-20T08:21:06.381Z,10.20
2022-09-20T08:23:40.534Z,10.20
2022-09-20T08:26:09.451Z,10.20
2022-09-20T08:28:36.093Z,10.40
2022-09-20T08:31:10.135Z,10.50
2022-09-20T08:33:39.724Z,10.50
2022-09-20T08:36:13.592Z,10.60
2022-09-20T08:41:31.006Z,10.40
2022-09-20T08:44:02.487Z,10.40
2022-09-20T08:46:34.171Z,10.60
2022-09-20T08:49:03.292Z,10.80
2022-09-20T08:51:32.846Z,10.90
2022-09-20T08:53:59.621Z,11.10
2022-09-20T08:56:31.358Z,11.10
2022-09-20T08:59:00.086Z,11.00
2022-09-20T09:01:29.506Z,10.90
2022-09-20T09:04:07.553Z,10.80
2022-09-20T09:06:34.195Z,10.70
2022-09-20T09:09:00.832Z,10.60
2022-09-20T09:11:28.300Z,10.60
2022-09-20T09:14:26.946Z,10.60
2022-09-20T09:16:54.758Z,10.60
2022-09-20T09:19:33.658Z,10.70
2022-09-20T09:22:02.770Z,10.70
2022-09-20T09:24:31.452Z,10.70
2022-09-20T09:27:17.847Z,10.80
2022-09-20T09:29:54.712Z,10.90
2022-09-20T09:32:28.478Z,11.00
2022-09-20T09:34:56.008Z,10.90
2022-09-20T09:37:28.677Z,10.90
2022-09-20T09:40:12.089Z,10.80
2022-09-20T09:42:48.111Z,10.80
2022-09-20T09:45:26.156Z,11.00
2022-09-20T09:47:53.597Z,11.10
2022-09-20T09:50:22.017Z,11.20
2022-09-20T09:52:59.358Z,11.20
2022-09-20T09:55:32.021Z,11.30
2022-09-20T09:58:06.661Z,11.30
2022-09-20T10:00:35.744Z,11.30
2022-09-20T10:03:11.251Z,11.00
2022-09-20T10:05:41.247Z,10.90
2022-09-20T10:08:16.684Z,10.80
2022-09-20T10:10:44.306Z,10.90
2022-09-20T10:13:10.909Z,11.00
2022-09-20T10:15:53.633Z,11.10
2022-09-20T10:18:32.450Z,11.20
2022-09-20T10:20:59.165Z,11.40
2022-09-20T10:24:01.990Z,11.60
2022-09-20T10:26:32.058Z,11.60
2022-09-20T10:29:11.318Z,11.70
2022-09-20T10:31:44.168Z,11.80
2022-09-20T10:34:17.397Z,11.80
2022-09-20T10:37:00.444Z,11.70
2022-09-20T10:39:27.029Z,11.70
2022-09-20T10:42:24.690Z,11.60
2022-09-20T10:45:09.457Z,11.40
2022-09-20T10:47:46.958Z,11.30
2022-09-20T10:50:13.576Z,11.40
2022-09-20T10:52:52.194Z,11.60
2022-09-20T10:55:32.173Z,11.70
2022-09-20T10:58:17.567Z,11.90
2022-09-20T11:01:01.678Z,11.90
2022-09-20T11:03:43.196Z,11.60
2022-09-20T11:06:12.774Z,11.60
2022-09-20T11:08:40.233Z,11.40
2022-09-20T11:11:09.459Z,11.40
2022-09-20T11:13:54.054Z,11.50
2022-09-20T11:16:25.477Z,11.60
2022-09-20T11:18:58.938Z,11.90
2022-09-20T11:21:28.961Z,12.20
2022-09-20T11:24:07.418Z,12.20
2022-09-20T11:26:39.637Z,12.30
2022-09-20T11:29:22.155Z,12.30
2022-09-20T11:31:50.528Z,12.40
2022-09-20T11:34:23.216Z,12.40
2022-09-20T11:36:59.061Z,12.50
2022-09-20T11:39:34.330Z,12.60
2022-09-20T11:42:01.600Z,12.60
2022-09-20T11:44:28.502Z,12.40
2022-09-20T11:47:07.140Z,12.30
2022-09-20T11:49:39.868Z,12.20
2022-09-20T11:52:06.552Z,11.90
2022-09-20T11:54:39.674Z,11.90
2022-09-20T11:57:08.259Z,11.70
2022-09-20T11:59:37.078Z,11.40
2022-09-20T12:02:05.724Z,11.10
2022-09-20T12:04:34.964Z,10.90
2022-09-20T12:07:08.351Z,10.90
2022-09-20T12:09:39.971Z,10.80
2022-09-20T12:12:36.604Z,10.80
2022-09-20T12:15:06.068Z,10.80
2022-09-20T12:17:48.095Z,10.80
2022-09-20T12:20:34.355Z,10.90
2022-09-20T12:23:20.904Z,11.00
2022-09-20T12:26:00.593Z,11.10
2022-09-20T12:28:34.278Z,11.20
2022-09-20T12:31:19.703Z,11.30
2022-09-20T12:33:57.264Z,11.40
2022-09-20T12:36:24.480Z,11.40
2022-09-20T12:38:59.009Z,11.50
2022-09-20T12:41:28.666Z,11.50
2022-09-20T12:44:00.894Z,11.50
2022-09-20T12:46:41.064Z,11.60
2022-09-20T12:49:55.916Z,11.60
2022-09-20T12:52:43.034Z,11.70
2022-09-20T12:55:11.943Z,11.80
2022-09-20T12:57:39.466Z,11.90
2022-09-20T13:00:07.247Z,11.90
2022-09-20T13:02:53.038Z,11.90
2022-09-20T13:05:38.169Z,11.80
2022-09-20T13:08:13.176Z,11.90
2022-09-20T13:10:45.253Z,11.90
2022-09-20T13:13:20.151Z,11.90
2022-09-20T13:15:52.438Z,11.90
2022-09-20T13:18:19.569Z,11.90
2022-09-20T13:20:46.172Z,11.80
2022-09-20T13:23:18.793Z,11.70
2022-09-20T13:25:45.631Z,11.70
2022-09-20T13:28:26.597Z,11.80
2022-09-20T13:31:13.291Z,11.80
2022-09-20T13:33:40.044Z,11.80
2022-09-20T13:36:07.276Z,12.00
2022-09-20T13:38:34.961Z,12.00
2022-09-20T13:41:10.868Z,12.00
2022-09-20T13:43:41.607Z,12.10
2022-09-20T13:46:18.631Z,12.10
2022-09-20T13:48:48.881Z,12.10
2022-09-20T13:51:25.552Z,12.10
2022-09-20T13:53:52.725Z,12.10
2022-09-20T13:56:29.990Z,12.00
2022-09-20T13:58:58.969Z,12.10
2022-09-20T14:01:25.812Z,12.10
2022-09-20T14:03:53.567Z,12.20
2022-09-20T14:06:27.281Z,12.10
2022-09-20T14:08:54.271Z,12.30
2022-09-20T14:11:25.558Z,12.30
2022-09-20T14:13:54.255Z,12.20
2022-09-20T14:16:23.070Z,12.30
2022-09-20T14:18:49.974Z,12.40
2022-09-20T14:21:35.561Z,12.40
2022-09-20T14:24:23.884Z,12.40
2022-09-20T14:27:00.819Z,12.50
2022-09-20T14:29:38.560Z,12.50
2022-09-20T14:32:12.937Z,12.40
2022-09-20T14:34:40.052Z,12.30
2022-09-20T14:37:10.363Z,12.30
2022-09-20T14:39:44.914Z,12.20
2022-09-20T14:42:33.987Z,12.20
2022-09-20T14:45:01.104Z,12.00
2022-09-20T14:47:28.976Z,11.90
2022-09-20T14:49:55.913Z,11.90
2022-09-20T14:52:25.559Z,11.80
2022-09-20T14:55:19.164Z,11.90
2022-09-20T14:57:46.348Z,12.00
2022-09-20T15:00:15.296Z,12.10
2022-09-20T15:02:45.847Z,12.10
2022-09-20T15:05:23.992Z,12.20
2022-09-20T15:07:50.613Z,12.30
2022-09-20T15:10:17.262Z,12.40
2022-09-20T15:12:43.910Z,12.20
2022-09-20T15:18:22.219Z,12.30
2022-09-20T15:20:49.601Z,12.30
2022-09-20T15:23:16.610Z,12.30
2022-09-20T15:25:43.328Z,12.20
2022-09-20T15:28:12.900Z,12.20
2022-09-20T15:30:39.489Z,12.30
2022-09-20T15:33:06.116Z,12.40
2022-09-20T15:35:32.752Z,12.30
2022-09-20T15:37:59.379Z,12.30
2022-09-20T15:40:26.134Z,12.20
2022-09-20T15:43:00.055Z,12.30
2022-09-20T15:45:28.121Z,12.20
2022-09-20T15:47:55.063Z,12.20
2022-09-20T15:50:25.628Z,12.10
2022-09-20T15:52:54.073Z,12.10
2022-09-20T15:55:23.486Z,12.10
2022-09-20T15:57:50.178Z,12.10
2022-09-20T16:00:18.128Z,12.00
2022-09-20T16:02:48.378Z,12.00
2022-09-20T16:05:15.157Z,12.10
2022-09-20T16:07:42.407Z,12.20
2022-09-20T16:10:09.105Z,12.20
2022-09-20T16:12:35.802Z,12.30
2022-09-20T16:15:02.428Z,12.30
2022-09-20T16:17:47.563Z,12.30
2022-09-20T16:20:14.252Z,12.40
2022-09-20T16:22:40.979Z,12.50
2022-09-20T16:25:08.715Z,12.70
2022-09-20T16:27:35.326Z,12.90
2022-09-20T16:30:02.440Z,13.10
2022-09-20T16:32:29.321Z,13.20
2022-09-20T16:34:57.996Z,13.30
2022-09-20T16:37:25.007Z,13.20
2022-09-20T16:39:51.633Z,13.10
2022-09-20T16:42:18.642Z,13.00
2022-09-20T16:44:45.466Z,12.90
2022-09-20T16:47:18.211Z,12.80
2022-09-20T16:49:48.262Z,12.70
2022-09-20T16:52:14.862Z,12.60
2022-09-20T16:54:41.475Z,12.40
2022-09-20T16:57:08.191Z,12.20
2022-09-20T16:59:34.865Z,12.00
2022-09-20T17:02:01.551Z,11.80
2022-09-20T17:04:28.354Z,11.50
2022-09-20T17:06:55.654Z,11.40
2022-09-20T17:09:22.352Z,11.30
2022-09-20T17:11:50.176Z,11.20
2022-09-20T17:14:18.632Z,11.10
2022-09-20T17:16:49.181Z,11.00
2022-09-20T17:19:18.551Z,11.00
2022-09-20T17:21:49.363Z,10.90
2022-09-20T17:24:17.198Z,10.80
2022-09-20T17:26:45.588Z,10.80
2022-09-20T17:29:15.562Z,10.70
2022-09-20T17:31:43.981Z,10.60
2022-09-20T17:34:11.454Z,10.50
2022-09-20T17:36:45.495Z,10.50
2022-09-20T17:39:13.207Z,10.40
2022-09-20T17:41:40.692Z,10.20
2022-09-20T17:44:12.158Z,10.10
2022-09-20T17:46:39.968Z,10.10
2022-09-20T17:49:16.811Z,10.00
2022-09-20T17:51:50.619Z,9.90
2022-09-20T17:54:17.533Z,9.90
2022-09-20T17:56:46.415Z,9.80
2022-09-20T17:59:15.669Z,9.80
2022-09-20T18:01:43.166Z,9.80
2022-09-20T18:04:10.511Z,9.70
2022-09-20T18:06:44.353Z,9.60
2022-09-20T18:09:12.179Z,9.60
2022-09-20T18:11:41.242Z,9.50
2022-09-20T18:14:10.303Z,9.50
2022-09-20T18:16:37.687Z,9.40
2022-09-20T18:19:05.772Z,9.40
2022-09-20T18:21:33.576Z,9.40
2022-09-20T18:24:01.013Z,9.30
2022-09-20T18:26:30.028Z,9.30
2022-09-20T18:28:56.973Z,9.20
2022-09-20T18:31:25.375Z,9.20
2022-09-20T18:33:52.675Z,9.10
2022-09-20T18:36:19.561Z,9.00
2022-09-20T18:38:46.241Z,9.00
2022-09-20T18:41:14.484Z,8.90
2022-09-20T18:43:44.203Z,8.90
2022-09-20T18:46:11.889Z,8.90
2022-09-20T18:48:41.320Z,8.90
2022-09-20T18:51:08.445Z,8.90
2022-09-20T18:53:36.640Z,8.80
2022-09-20T18:56:07.407Z,8.80
2022-09-20T18:58:34.789Z,8.80
2022-09-20T19:01:16.534Z,8.70
2022-09-20T19:03:45.953Z,8.60
2022-09-20T19:06:12.900Z,8.60
2022-09-20T19:08:47.170Z,8.60
2022-09-20T19:11:24.100Z,8.50
2022-09-20T19:14:07.814Z,8.40
2022-09-20T19:16:36.975Z,8.40
2022-09-20T19:19:22.445Z,8.30
2022-09-20T19:22:03.411Z,8.30
2022-09-20T19:24:56.936Z,8.20
2022-09-20T19:27:26.184Z,8.30
2022-09-20T19:29:53.302Z,8.10
2022-09-20T19:32:21.720Z,8.10
2022-09-20T19:34:52.165Z,8.10
2022-09-20T19:37:29.616Z,8.10
2022-09-20T19:39:56.294Z,8.00
2022-09-20T19:42:38.508Z,8.20
2022-09-20T19:45:21.322Z,8.10
2022-09-20T19:47:57.225Z,8.10
2022-09-20T19:50:29.535Z,8.10
2022-09-20T19:52:56.462Z,8.00
2022-09-20T19:55:23.370Z,8.10
2022-09-20T19:57:50.166Z,8.20
2022-09-20T20:00:20.933Z,8.20
2022-09-20T20:02:48.096Z,8.10
2022-09-20T20:05:19.495Z,8.10
2022-09-20T20:07:51.489Z,8.00
2022-09-20T20:10:22.262Z,8.10
2022-09-20T20:13:00.476Z,8.00
2022-09-20T20:15:37.771Z,8.00
2022-09-20T20:18:19.840Z,8.10
2022-09-20T20:20:52.476Z,8.10
2022-09-20T20:23:37.994Z,8.20
2022-09-20T20:26:05.775Z,8.30
2022-09-20T20:28:32.485Z,8.20
2022-09-20T20:31:02.218Z,8.20
2022-09-20T20:33:29.492Z,8.10
2022-09-20T20:35:57.432Z,8.10
2022-09-20T20:38:26.332Z,8.00
2022-09-20T20:41:06.249Z,8.00
2022-09-20T20:43:34.879Z,8.00
2022-09-20T20:46:01.871Z,8.00
2022-09-20T20:48:29.098Z,8.00
2022-09-20T20:51:19.091Z,7.90
2022-09-20T20:53:49.833Z,8.00
2022-09-20T20:56:20.857Z,8.00
2022-09-20T20:58:48.525Z,8.00
2022-09-20T21:01:18.100Z,8.00
2022-09-20T21:03:48.821Z,7.90
2022-09-20T21:06:15.876Z,7.80
2022-09-20T21:08:47.045Z,7.80
2022-09-20T21:11:20.464Z,7.80
2022-09-20T21:13:48.778Z,7.80
2022-09-20T21:16:17.110Z,7.70
2022-09-20T21:18:44.878Z,7.70
2022-09-20T21:21:16.120Z,7.60
2022-09-20T21:23:43.673Z,7.60
2022-09-20T21:26:12.783Z,7.70
2022-09-20T21:28:41.314Z,7.60
2022-09-20T21:31:08.768Z,7.60
2022-09-20T21:33:37.072Z,7.70
2022-09-20T21:36:04.465Z,7.70
2022-09-20T21:38:34.380Z,7.60
2022-09-20T21:41:11.864Z,7.70
2022-09-20T21:43:42.857Z,7.70
2022-09-20T21:46:13.333Z,7.70
2022-09-20T21:48:40.230Z,7.80
2022-09-20T21:51:08.213Z,7.80
2022-09-20T21:53:35.200Z,7.80
2022-09-20T21:56:03.213Z,7.70
2022-09-20T21:58:30.207Z,7.80
2022-09-20T22:00:57.725Z,7.80
2022-09-20T22:03:24.601Z,7.80
2022-09-20T22:05:51.185Z,7.80
2022-09-20T22:08:17.961Z,7.80
2022-09-20T22:10:54.234Z,7.90
2022-09-20T22:13:20.880Z,7.90
2022-09-20T22:15:47.524Z,7.90
2022-09-20T22:18:14.180Z,7.90
2022-09-20T22:20:40.840Z,7.90
2022-09-20T22:23:07.665Z,7.80
2022-09-20T22:25:34.284Z,7.80
2022-09-20T22:28:00.993Z,7.80
2022-09-20T22:30:27.663Z,7.70
2022-09-20T22:32:54.427Z,7.70
2022-09-20T22:35:21.121Z,7.70
2022-09-20T22:37:47.700Z,7.80
2022-09-20T22:40:14.492Z,7.80
2022-09-20T22:42:41.190Z,7.80
2022-09-20T22:45:07.950Z,7.80
2022-09-20T22:47:34.566Z,7.80
2022-09-20T22:52:51.645Z,7.80
2022-09-20T22:55:18.294Z,7.80
2022-09-20T22:57:44.893Z,7.90
2022-09-20T23:00:11.750Z,7.90
2022-09-20T23:02:38.458Z,8.00
2022-09-20T23:05:06.348Z,8.00
2022-09-20T23:07:33.216Z,8.00
2022-09-20T23:09:59.870Z,8.00
2022-09-20T23:12:26.501Z,8.00
2022-09-20T23:14:53.130Z,8.10
2022-09-20T23:17:19.709Z,8.20
2022-09-20T23:19:46.340Z,8.30
2022-09-20T23:22:12.990Z,8.50
2022-09-20T23:24:39.593Z,8.40
2022-09-20T23:27:06.814Z,8.40
2022-09-20T23:29:33.741Z,8.40
2022-09-20T23:32:00.386Z,8.40
2022-09-20T23:34:27.014Z,8.50
2022-09-20T23:36:53.612Z,8.50
2022-09-20T23:39:20.237Z,8.50
2022-09-20T23:41:50.865Z,8.50
2022-09-20T23:44:17.890Z,8.50
2022-09-20T23:46:44.640Z,8.50
2022-09-20T23:49:11.251Z,8.50
2022-09-20T23:51:38.298Z,8.50
2022-09-20T23:54:04.988Z,8.50
2022-09-20T23:56:32.062Z,8.50
2022-09-20T23:58:58.701Z,8.70
